sensor_id;sensor_type;location;lat;lon;timestamp;pressure;altitude;pressure_sealevel;temperature;humidity
21545;BME280;10933;50.754;11.508;2023-05-10T00:00:25;97868.63;;;12.99;100.00
21545;BME280;10933;50.754;11.508;2023-05-10T00:02:51;97918.84;;;13.27;100.00
21545;BME280;10933;50.754;11.508;2023-05-10T00:05:16;97931.03;;;13.38;100.00
21545;BME280;10933;50.754;11.508;2023-05-10T00:07:42;97948.81;;;13.53;100.00
21545;BME280;10933;50.754;11.508;2023-05-10T00:10:11;97934.88;;;13.37;100.00
21545;BME280;10933;50.754;11.508;2023-05-10T00:12:37;97944.81;;;13.28;100.00
21545;BME280;10933;50.754;11.508;2023-05-10T00:15:03;97869.41;;;12.99;100.00
21545;BME280;10933;50.754;11.508;2023-05-10T00:17:29;97766.41;;;12.73;100.00
21545;BME280;10933;50.754;11.508;2023-05-10T00:19:55;97708.50;;;12.52;100.00
21545;BME280;10933;50.754;11.508;2023-05-10T00:22:21;97628.31;;;12.25;100.00
21545;BME280;10933;50.754;11.508;2023-05-10T00:24:46;97583.47;;;12.24;100.00
21545;BME280;10933;50.754;11.508;2023-05-10T00:27:12;97571.69;;;12.20;100.00
21545;BME280;10933;50.754;11.508;2023-05-10T00:29:38;97589.22;;;12.31;100.00
21545;BME280;10933;50.754;11.508;2023-05-10T00:32:04;97573.09;;;12.17;100.00
21545;BME280;10933;50.754;11.508;2023-05-10T00:34:31;97563.63;;;12.28;100.00
21545;BME280;10933;50.754;11.508;2023-05-10T00:36:56;97605.38;;;12.45;100.00
21545;BME280;10933;50.754;11.508;2023-05-10T00:39:22;97626.53;;;12.82;100.00
21545;BME280;10933;50.754;11.508;2023-05-10T00:41:48;97666.91;;;12.70;100.00
21545;BME280;10933;50.754;11.508;2023-05-10T00:44:13;97646.16;;;12.57;100.00
21545;BME280;10933;50.754;11.508;2023-05-10T00:46:39;97642.81;;;12.51;100.00
21545;BME280;10933;50.754;11.508;2023-05-10T00:49:06;97621.47;;;12.50;100.00
21545;BME280;10933;50.754;11.508;2023-05-10T00:51:32;97606.22;;;12.54;100.00
21545;BME280;10933;50.754;11.508;2023-05-10T00:53:58;97633.47;;;12.66;100.00
21545;BME280;10933;50.754;11.508;2023-05-10T00:56:25;97659.16;;;12.77;100.00
21545;BME280;10933;50.754;11.508;2023-05-10T00:58:52;97587.84;;;12.33;100.00
21545;BME280;10933;50.754;11.508;2023-05-10T01:01:19;97578.41;;;12.31;100.00
21545;BME280;10933;50.754;11.508;2023-05-10T01:03:46;97547.50;;;12.15;100.00
21545;BME280;10933;50.754;11.508;2023-05-10T01:06:12;97529.75;;;12.00;100.00
21545;BME280;10933;50.754;11.508;2023-05-10T01:08:39;97522.84;;;11.85;100.00
21545;BME280;10933;50.754;11.508;2023-05-10T01:11:06;97506.00;;;11.88;100.00
21545;BME280;10933;50.754;11.508;2023-05-10T01:13:41;97518.22;;;12.08;100.00
21545;BME280;10933;50.754;11.508;2023-05-10T01:16:08;97535.16;;;12.00;100.00
21545;BME280;10933;50.754;11.508;2023-05-10T01:18:40;97520.00;;;11.90;100.00
21545;BME280;10933;50.754;11.508;2023-05-10T01:21:41;97515.06;;;11.84;100.00
21545;BME280;10933;50.754;11.508;2023-05-10T01:24:50;97523.19;;;11.92;100.00
21545;BME280;10933;50.754;11.508;2023-05-10T01:31:06;97540.84;;;12.21;100.00
21545;BME280;10933;50.754;11.508;2023-05-10T01:33:55;97534.44;;;12.08;100.00
21545;BME280;10933;50.754;11.508;2023-05-10T01:36:34;97530.97;;;11.94;100.00
21545;BME280;10933;50.754;11.508;2023-05-10T01:42:16;97521.44;;;11.88;100.00
21545;BME280;10933;50.754;11.508;2023-05-10T01:45:00;97519.84;;;11.87;100.00
21545;BME280;10933;50.754;11.508;2023-05-10T01:47:35;97518.88;;;11.83;100.00
21545;BME280;10933;50.754;11.508;2023-05-10T01:50:08;97531.47;;;11.73;100.00
21545;BME280;10933;50.754;11.508;2023-05-10T01:52:42;97554.06;;;11.77;100.00
21545;BME280;10933;50.754;11.508;2023-05-10T01:55:15;97563.09;;;11.73;100.00
21545;BME280;10933;50.754;11.508;2023-05-10T01:57:44;97569.28;;;11.73;100.00
21545;BME280;10933;50.754;11.508;2023-05-10T02:00:13;97575.81;;;11.72;100.00
21545;BME280;10933;50.754;11.508;2023-05-10T02:02:45;97591.13;;;11.63;100.00
21545;BME280;10933;50.754;11.508;2023-05-10T02:05:14;97602.81;;;11.72;100.00
21545;BME280;10933;50.754;11.508;2023-05-10T02:07:42;97599.78;;;11.88;100.00
21545;BME280;10933;50.754;11.508;2023-05-10T02:10:10;97608.50;;;11.85;100.00
21545;BME280;10933;50.754;11.508;2023-05-10T02:12:42;97620.97;;;11.94;100.00
21545;BME280;10933;50.754;11.508;2023-05-10T02:15:10;97623.72;;;12.25;100.00
21545;BME280;10933;50.754;11.508;2023-05-10T02:17:38;97627.00;;;12.45;100.00
21545;BME280;10933;50.754;11.508;2023-05-10T02:20:06;97637.75;;;12.58;100.00
21545;BME280;10933;50.754;11.508;2023-05-10T02:22:35;97615.59;;;12.48;100.00
21545;BME280;10933;50.754;11.508;2023-05-10T02:25:03;97598.91;;;12.23;100.00
21545;BME280;10933;50.754;11.508;2023-05-10T02:27:30;97598.66;;;11.89;100.00
21545;BME280;10933;50.754;11.508;2023-05-10T02:29:57;97596.28;;;11.87;100.00
21545;BME280;10933;50.754;11.508;2023-05-10T02:32:26;97582.56;;;12.06;100.00
21545;BME280;10933;50.754;11.508;2023-05-10T02:34:54;97599.41;;;12.03;100.00
21545;BME280;10933;50.754;11.508;2023-05-10T02:37:21;97600.03;;;12.31;100.00
21545;BME280;10933;50.754;11.508;2023-05-10T02:39:50;97601.84;;;12.35;100.00
21545;BME280;10933;50.754;11.508;2023-05-10T02:42:25;97607.78;;;12.46;100.00
21545;BME280;10933;50.754;11.508;2023-05-10T02:44:56;97604.78;;;12.48;100.00
21545;BME280;10933;50.754;11.508;2023-05-10T02:47:24;97611.88;;;12.75;100.00
21545;BME280;10933;50.754;11.508;2023-05-10T02:49:51;97631.53;;;12.89;100.00
21545;BME280;10933;50.754;11.508;2023-05-10T02:52:24;97624.94;;;12.81;100.00
21545;BME280;10933;50.754;11.508;2023-05-10T02:54:55;97630.38;;;12.81;100.00
21545;BME280;10933;50.754;11.508;2023-05-10T02:57:28;97631.97;;;12.82;100.00
21545;BME280;10933;50.754;11.508;2023-05-10T02:59:57;97641.81;;;12.78;100.00
21545;BME280;10933;50.754;11.508;2023-05-10T03:02:23;97653.28;;;12.75;100.00
21545;BME280;10933;50.754;11.508;2023-05-10T03:04:48;97645.16;;;12.75;100.00
21545;BME280;10933;50.754;11.508;2023-05-10T03:07:14;97651.69;;;12.83;100.00
21545;BME280;10933;50.754;11.508;2023-05-10T03:09:41;97645.31;;;12.79;100.00
21545;BME280;10933;50.754;11.508;2023-05-10T03:12:15;97645.28;;;12.70;100.00
21545;BME280;10933;50.754;11.508;2023-05-10T03:15:12;97647.22;;;12.78;100.00
21545;BME280;10933;50.754;11.508;2023-05-10T03:17:55;97636.25;;;12.75;100.00
21545;BME280;10933;50.754;11.508;2023-05-10T03:20:30;97651.22;;;12.81;100.00
21545;BME280;10933;50.754;11.508;2023-05-10T03:23:12;97659.53;;;12.84;100.00
21545;BME280;10933;50.754;11.508;2023-05-10T03:25:41;97675.97;;;12.96;100.00
21545;BME280;10933;50.754;11.508;2023-05-10T03:28:09;97683.41;;;12.91;100.00
21545;BME280;10933;50.754;11.508;2023-05-10T03:30:35;97673.66;;;12.81;100.00
21545;BME280;10933;50.754;11.508;2023-05-10T03:33:06;97671.91;;;12.77;100.00
21545;BME280;10933;50.754;11.508;2023-05-10T03:35:32;97656.59;;;12.72;100.00
21545;BME280;10933;50.754;11.508;2023-05-10T03:37:57;97645.28;;;12.70;100.00
21545;BME280;10933;50.754;11.508;2023-05-10T03:40:25;97649.09;;;12.69;100.00
21545;BME280;10933;50.754;11.508;2023-05-10T03:42:51;97603.28;;;12.73;100.00
21545;BME280;10933;50.754;11.508;2023-05-10T03:45:17;97587.66;;;12.61;100.00
21545;BME280;10933;50.754;11.508;2023-05-10T03:47:42;97572.66;;;12.55;100.00
21545;BME280;10933;50.754;11.508;2023-05-10T03:50:08;97573.91;;;12.49;100.00
21545;BME280;10933;50.754;11.508;2023-05-10T03:52:35;97579.31;;;12.49;100.00
21545;BME280;10933;50.754;11.508;2023-05-10T03:55:01;97608.47;;;12.29;100.00
21545;BME280;10933;50.754;11.508;2023-05-10T03:57:29;97677.91;;;11.98;100.00
21545;BME280;10933;50.754;11.508;2023-05-10T03:59:54;97720.56;;;11.87;100.00
21545;BME280;10933;50.754;11.508;2023-05-10T04:02:20;97743.31;;;12.08;100.00
21545;BME280;10933;50.754;11.508;2023-05-10T04:04:46;97764.44;;;12.06;100.00
21545;BME280;10933;50.754;11.508;2023-05-10T04:07:12;97769.25;;;12.10;100.00
21545;BME280;10933;50.754;11.508;2023-05-10T04:09:37;97779.13;;;12.14;100.00
21545;BME280;10933;50.754;11.508;2023-05-10T04:12:03;97792.97;;;12.13;100.00
21545;BME280;10933;50.754;11.508;2023-05-10T04:14:29;97788.34;;;12.13;100.00
21545;BME280;10933;50.754;11.508;2023-05-10T04:16:55;97802.34;;;12.15;100.00
21545;BME280;10933;50.754;11.508;2023-05-10T04:19:22;97805.56;;;12.17;100.00
21545;BME280;10933;50.754;11.508;2023-05-10T04:21:48;97808.38;;;12.12;100.00
21545;BME280;10933;50.754;11.508;2023-05-10T04:24:13;97809.34;;;12.16;100.00
21545;BME280;10933;50.754;11.508;2023-05-10T04:26:39;97812.91;;;12.39;100.00
21545;BME280;10933;50.754;11.508;2023-05-10T04:29:05;97810.41;;;12.43;100.00
21545;BME280;10933;50.754;11.508;2023-05-10T04:31:31;97811.91;;;12.49;100.00
21545;BME280;10933;50.754;11.508;2023-05-10T04:33:56;97813.59;;;12.45;100.00
21545;BME280;10933;50.754;11.508;2023-05-10T04:36:22;97828.84;;;12.41;100.00
21545;BME280;10933;50.754;11.508;2023-05-10T04:38:48;97817.53;;;12.38;100.00
21545;BME280;10933;50.754;11.508;2023-05-10T04:41:13;97819.56;;;12.33;100.00
21545;BME280;10933;50.754;11.508;2023-05-10T04:43:39;97802.53;;;12.32;100.00
21545;BME280;10933;50.754;11.508;2023-05-10T04:46:06;97796.59;;;12.30;100.00
21545;BME280;10933;50.754;11.508;2023-05-10T04:48:35;97793.59;;;12.32;100.00
21545;BME280;10933;50.754;11.508;2023-05-10T04:51:00;97797.72;;;12.29;100.00
21545;BME280;10933;50.754;11.508;2023-05-10T04:53:26;97771.41;;;12.21;100.00
21545;BME280;10933;50.754;11.508;2023-05-10T04:55:52;97771.53;;;12.16;100.00
21545;BME280;10933;50.754;11.508;2023-05-10T04:58:18;97786.75;;;12.12;100.00
21545;BME280;10933;50.754;11.508;2023-05-10T05:00:43;97788.53;;;12.17;100.00
21545;BME280;10933;50.754;11.508;2023-05-10T05:03:09;97785.44;;;12.23;100.00
21545;BME280;10933;50.754;11.508;2023-05-10T05:05:35;97790.31;;;12.35;100.00
21545;BME280;10933;50.754;11.508;2023-05-10T05:08:01;97782.75;;;12.46;100.00
21545;BME280;10933;50.754;11.508;2023-05-10T05:10:26;97797.44;;;12.53;100.00
21545;BME280;10933;50.754;11.508;2023-05-10T05:12:52;97788.28;;;12.63;100.00
21545;BME280;10933;50.754;11.508;2023-05-10T05:15:18;97795.16;;;12.69;100.00
21545;BME280;10933;50.754;11.508;2023-05-10T05:17:43;97814.31;;;12.73;100.00
21545;BME280;10933;50.754;11.508;2023-05-10T05:20:10;97841.69;;;12.71;100.00
21545;BME280;10933;50.754;11.508;2023-05-10T05:22:37;97844.38;;;12.71;100.00
21545;BME280;10933;50.754;11.508;2023-05-10T05:25:03;97850.47;;;12.77;100.00
21545;BME280;10933;50.754;11.508;2023-05-10T05:27:29;97862.13;;;12.63;100.00
21545;BME280;10933;50.754;11.508;2023-05-10T05:29:56;97863.06;;;12.59;100.00
21545;BME280;10933;50.754;11.508;2023-05-10T05:32:24;97843.13;;;12.55;100.00
21545;BME280;10933;50.754;11.508;2023-05-10T05:34:50;97829.09;;;12.53;100.00
21545;BME280;10933;50.754;11.508;2023-05-10T05:37:18;97815.16;;;12.59;100.00
21545;BME280;10933;50.754;11.508;2023-05-10T05:39:45;97795.38;;;12.73;100.00
21545;BME280;10933;50.754;11.508;2023-05-10T05:42:12;97784.59;;;12.81;100.00
21545;BME280;10933;50.754;11.508;2023-05-10T05:44:39;97787.19;;;12.86;100.00
21545;BME280;10933;50.754;11.508;2023-05-10T05:47:05;97783.19;;;12.84;100.00
21545;BME280;10933;50.754;11.508;2023-05-10T05:49:32;97786.72;;;12.84;100.00
21545;BME280;10933;50.754;11.508;2023-05-10T05:52:02;97781.88;;;13.04;100.00
21545;BME280;10933;50.754;11.508;2023-05-10T05:54:29;97769.03;;;13.18;100.00
21545;BME280;10933;50.754;11.508;2023-05-10T05:56:56;97778.75;;;12.88;100.00
21545;BME280;10933;50.754;11.508;2023-05-10T05:59:22;97790.38;;;12.66;100.00
21545;BME280;10933;50.754;11.508;2023-05-10T06:01:48;97789.03;;;12.55;100.00
21545;BME280;10933;50.754;11.508;2023-05-10T06:04:15;97773.78;;;12.59;100.00
21545;BME280;10933;50.754;11.508;2023-05-10T06:06:44;97772.69;;;12.60;100.00
21545;BME280;10933;50.754;11.508;2023-05-10T06:09:11;97754.25;;;12.62;100.00
21545;BME280;10933;50.754;11.508;2023-05-10T06:11:37;97739.97;;;12.70;100.00
21545;BME280;10933;50.754;11.508;2023-05-10T06:14:03;97733.47;;;12.71;100.00
21545;BME280;10933;50.754;11.508;2023-05-10T06:16:30;97729.50;;;12.77;100.00
21545;BME280;10933;50.754;11.508;2023-05-10T06:18:59;97732.84;;;12.74;100.00
21545;BME280;10933;50.754;11.508;2023-05-10T06:21:25;97713.41;;;12.72;100.00
21545;BME280;10933;50.754;11.508;2023-05-10T06:23:51;97717.81;;;12.68;100.00
21545;BME280;10933;50.754;11.508;2023-05-10T06:26:16;97702.75;;;12.76;100.00
21545;BME280;10933;50.754;11.508;2023-05-10T06:28:42;97685.81;;;12.92;100.00
21545;BME280;10933;50.754;11.508;2023-05-10T06:31:08;97670.91;;;13.04;100.00
21545;BME280;10933;50.754;11.508;2023-05-10T06:33:34;97656.69;;;13.29;100.00
21545;BME280;10933;50.754;11.508;2023-05-10T06:36:00;97682.78;;;13.25;100.00
21545;BME280;10933;50.754;11.508;2023-05-10T06:38:26;97675.09;;;13.84;100.00
21545;BME280;10933;50.754;11.508;2023-05-10T06:40:55;97690.41;;;13.80;100.00
21545;BME280;10933;50.754;11.508;2023-05-10T06:43:21;97705.38;;;13.77;100.00
21545;BME280;10933;50.754;11.508;2023-05-10T06:45:48;97734.63;;;13.41;100.00
21545;BME280;10933;50.754;11.508;2023-05-10T06:48:17;97742.78;;;13.49;100.00
21545;BME280;10933;50.754;11.508;2023-05-10T06:50:43;97763.13;;;13.38;100.00
21545;BME280;10933;50.754;11.508;2023-05-10T06:53:09;97768.22;;;13.40;100.00
21545;BME280;10933;50.754;11.508;2023-05-10T06:55:35;97780.22;;;13.47;100.00
21545;BME280;10933;50.754;11.508;2023-05-10T06:58:01;97766.69;;;13.47;100.00
21545;BME280;10933;50.754;11.508;2023-05-10T07:00:30;97774.94;;;13.42;100.00
21545;BME280;10933;50.754;11.508;2023-05-10T07:02:55;97771.63;;;13.54;100.00
21545;BME280;10933;50.754;11.508;2023-05-10T07:05:21;97749.34;;;13.66;100.00
21545;BME280;10933;50.754;11.508;2023-05-10T07:07:47;97747.47;;;13.75;100.00
21545;BME280;10933;50.754;11.508;2023-05-10T07:10:13;97740.00;;;13.89;100.00
21545;BME280;10933;50.754;11.508;2023-05-10T07:12:39;97745.06;;;13.65;100.00
21545;BME280;10933;50.754;11.508;2023-05-10T07:15:05;97739.28;;;13.49;100.00
21545;BME280;10933;50.754;11.508;2023-05-10T07:17:31;97722.41;;;13.61;100.00
21545;BME280;10933;50.754;11.508;2023-05-10T07:19:59;97708.88;;;13.69;100.00
21545;BME280;10933;50.754;11.508;2023-05-10T07:22:25;97696.16;;;13.78;100.00
21545;BME280;10933;50.754;11.508;2023-05-10T07:24:51;97699.31;;;13.72;100.00
21545;BME280;10933;50.754;11.508;2023-05-10T07:27:17;97700.91;;;13.64;100.00
21545;BME280;10933;50.754;11.508;2023-05-10T07:29:43;97683.22;;;13.84;100.00
21545;BME280;10933;50.754;11.508;2023-05-10T07:32:08;97679.72;;;13.75;100.00
21545;BME280;10933;50.754;11.508;2023-05-10T07:34:34;97663.59;;;13.70;100.00
21545;BME280;10933;50.754;11.508;2023-05-10T07:37:01;97666.19;;;13.92;100.00
21545;BME280;10933;50.754;11.508;2023-05-10T07:39:27;97664.72;;;14.21;100.00
21545;BME280;10933;50.754;11.508;2023-05-10T07:41:54;97681.00;;;14.21;100.00
21545;BME280;10933;50.754;11.508;2023-05-10T07:44:19;97708.78;;;14.00;100.00
21545;BME280;10933;50.754;11.508;2023-05-10T07:46:46;97686.25;;;14.34;100.00
21545;BME280;10933;50.754;11.508;2023-05-10T07:49:13;97672.13;;;14.84;100.00
21545;BME280;10933;50.754;11.508;2023-05-10T07:51:39;97673.25;;;14.83;100.00
21545;BME280;10933;50.754;11.508;2023-05-10T07:54:05;97690.31;;;14.92;100.00
21545;BME280;10933;50.754;11.508;2023-05-10T07:56:32;97706.28;;;15.02;100.00
21545;BME280;10933;50.754;11.508;2023-05-10T07:58:59;97718.06;;;15.15;100.00
21545;BME280;10933;50.754;11.508;2023-05-10T08:01:26;97734.50;;;15.10;100.00
21545;BME280;10933;50.754;11.508;2023-05-10T08:03:58;97712.38;;;15.38;100.00
21545;BME280;10933;50.754;11.508;2023-05-10T08:06:24;97724.44;;;15.11;100.00
21545;BME280;10933;50.754;11.508;2023-05-10T08:08:52;97719.41;;;14.92;100.00
21545;BME280;10933;50.754;11.508;2023-05-10T08:11:23;97714.22;;;15.08;100.00
21545;BME280;10933;50.754;11.508;2023-05-10T08:13:50;97728.03;;;14.85;100.00
21545;BME280;10933;50.754;11.508;2023-05-10T08:16:20;97719.28;;;14.80;100.00
21545;BME280;10933;50.754;11.508;2023-05-10T08:18:47;97720.41;;;14.70;100.00
21545;BME280;10933;50.754;11.508;2023-05-10T08:21:13;97697.22;;;14.72;100.00
21545;BME280;10933;50.754;11.508;2023-05-10T08:23:40;97648.84;;;15.21;100.00
21545;BME280;10933;50.754;11.508;2023-05-10T08:26:06;97633.34;;;15.22;100.00
21545;BME280;10933;50.754;11.508;2023-05-10T08:28:36;97613.38;;;15.47;100.00
21545;BME280;10933;50.754;11.508;2023-05-10T08:31:02;97613.63;;;15.34;100.00
21545;BME280;10933;50.754;11.508;2023-05-10T08:33:28;97618.66;;;15.44;100.00
21545;BME280;10933;50.754;11.508;2023-05-10T08:35:54;97616.78;;;15.36;100.00
21545;BME280;10933;50.754;11.508;2023-05-10T10:12:42;98043.25;;;17.07;100.00
21545;BME280;10933;50.754;11.508;2023-05-10T10:15:09;98012.72;;;17.43;100.00
21545;BME280;10933;50.754;11.508;2023-05-10T10:28:21;98060.75;;;19.17;100.00
21545;BME280;10933;50.754;11.508;2023-05-10T10:30:51;98084.31;;;19.58;100.00
21545;BME280;10933;50.754;11.508;2023-05-10T10:36:13;98133.38;;;18.36;100.00
21545;BME280;10933;50.754;11.508;2023-05-10T10:41:29;98116.91;;;18.11;100.00
21545;BME280;10933;50.754;11.508;2023-05-10T10:55:03;98166.47;;;18.34;100.00
21545;BME280;10933;50.754;11.508;2023-05-10T10:57:50;98168.13;;;18.93;100.00
21545;BME280;10933;50.754;11.508;2023-05-10T11:02:59;98155.63;;;19.16;100.00
21545;BME280;10933;50.754;11.508;2023-05-10T11:08:10;98158.47;;;19.68;100.00
21545;BME280;10933;50.754;11.508;2023-05-10T11:10:38;98162.19;;;19.88;100.00
21545;BME280;10933;50.754;11.508;2023-05-10T11:13:06;98194.88;;;20.09;100.00
21545;BME280;10933;50.754;11.508;2023-05-10T11:15:35;98206.69;;;19.49;100.00
21545;BME280;10933;50.754;11.508;2023-05-10T11:18:30;98207.84;;;18.90;100.00
21545;BME280;10933;50.754;11.508;2023-05-10T11:21:00;98210.28;;;18.38;100.00
21545;BME280;10933;50.754;11.508;2023-05-10T11:26:14;98193.78;;;17.63;100.00
21545;BME280;10933;50.754;11.508;2023-05-10T11:28:47;98192.63;;;17.43;100.00
21545;BME280;10933;50.754;11.508;2023-05-10T11:31:15;98167.47;;;17.38;100.00
21545;BME280;10933;50.754;11.508;2023-05-10T11:33:46;98160.13;;;17.59;100.00
21545;BME280;10933;50.754;11.508;2023-05-10T11:36:15;98158.78;;;17.44;100.00
21545;BME280;10933;50.754;11.508;2023-05-10T11:38:42;98156.13;;;17.27;100.00
21545;BME280;10933;50.754;11.508;2023-05-10T11:41:09;98150.78;;;17.39;100.00
21545;BME280;10933;50.754;11.508;2023-05-10T11:43:38;98148.06;;;17.39;100.00
21545;BME280;10933;50.754;11.508;2023-05-10T11:46:10;98141.66;;;17.35;100.00
21545;BME280;10933;50.754;11.508;2023-05-10T11:48:38;98145.91;;;17.24;100.00
21545;BME280;10933;50.754;11.508;2023-05-10T11:51:04;98158.03;;;17.05;100.00
21545;BME280;10933;50.754;11.508;2023-05-10T11:53:31;98152.00;;;17.21;100.00
21545;BME280;10933;50.754;11.508;2023-05-10T11:56:10;98139.69;;;17.44;100.00
21545;BME280;10933;50.754;11.508;2023-05-10T11:58:39;98150.50;;;17.32;100.00
21545;BME280;10933;50.754;11.508;2023-05-10T12:01:08;98153.41;;;17.27;100.00
21545;BME280;10933;50.754;11.508;2023-05-10T12:03:35;98155.88;;;17.20;100.00
21545;BME280;10933;50.754;11.508;2023-05-10T12:06:02;98165.44;;;17.26;100.00
21545;BME280;10933;50.754;11.508;2023-05-10T12:08:30;98158.13;;;17.18;100.00
21545;BME280;10933;50.754;11.508;2023-05-10T12:11:07;98174.38;;;16.97;100.00
21545;BME280;10933;50.754;11.508;2023-05-10T12:13:38;98162.56;;;16.93;100.00
21545;BME280;10933;50.754;11.508;2023-05-10T12:16:21;98153.00;;;16.69;100.00
21545;BME280;10933;50.754;11.508;2023-05-10T12:18:57;98153.50;;;16.54;100.00
21545;BME280;10933;50.754;11.508;2023-05-10T12:21:25;98155.72;;;16.61;100.00
21545;BME280;10933;50.754;11.508;2023-05-10T12:23:53;98154.59;;;16.62;100.00
21545;BME280;10933;50.754;11.508;2023-05-10T12:26:24;98138.25;;;16.79;100.00
21545;BME280;10933;50.754;11.508;2023-05-10T12:28:50;98139.84;;;16.80;100.00
21545;BME280;10933;50.754;11.508;2023-05-10T12:31:16;98135.97;;;16.90;100.00
21545;BME280;10933;50.754;11.508;2023-05-10T12:33:46;98138.38;;;16.91;100.00
21545;BME280;10933;50.754;11.508;2023-05-10T12:36:16;98146.22;;;16.93;100.00
21545;BME280;10933;50.754;11.508;2023-05-10T12:38:44;98152.63;;;16.88;100.00
21545;BME280;10933;50.754;11.508;2023-05-10T12:41:15;98155.19;;;16.93;100.00
21545;BME280;10933;50.754;11.508;2023-05-10T12:43:42;98149.31;;;17.12;100.00
21545;BME280;10933;50.754;11.508;2023-05-10T12:46:14;98143.00;;;17.29;100.00
21545;BME280;10933;50.754;11.508;2023-05-10T12:48:41;98152.16;;;17.24;100.00
21545;BME280;10933;50.754;11.508;2023-05-10T12:51:08;98163.41;;;17.14;100.00
21545;BME280;10933;50.754;11.508;2023-05-10T12:53:35;98158.47;;;17.08;100.00
21545;BME280;10933;50.754;11.508;2023-05-10T12:56:02;98170.22;;;16.99;100.00
21545;BME280;10933;50.754;11.508;2023-05-10T12:58:28;98171.63;;;17.05;100.00
21545;BME280;10933;50.754;11.508;2023-05-10T13:00:55;98168.94;;;16.97;100.00
21545;BME280;10933;50.754;11.508;2023-05-10T13:03:22;98170.41;;;16.94;100.00
21545;BME280;10933;50.754;11.508;2023-05-10T13:05:48;98162.84;;;17.00;100.00
21545;BME280;10933;50.754;11.508;2023-05-10T13:08:15;98164.13;;;17.02;100.00
21545;BME280;10933;50.754;11.508;2023-05-10T13:10:41;98165.88;;;16.98;100.00
21545;BME280;10933;50.754;11.508;2023-05-10T13:13:07;98179.97;;;17.00;100.00
21545;BME280;10933;50.754;11.508;2023-05-10T13:15:34;98174.25;;;16.93;100.00
21545;BME280;10933;50.754;11.508;2023-05-10T13:18:00;98171.06;;;16.91;100.00
21545;BME280;10933;50.754;11.508;2023-05-10T13:20:26;98168.00;;;16.93;100.00
21545;BME280;10933;50.754;11.508;2023-05-10T13:22:53;98168.59;;;16.98;100.00
21545;BME280;10933;50.754;11.508;2023-05-10T13:25:19;98173.50;;;17.14;100.00
21545;BME280;10933;50.754;11.508;2023-05-10T13:27:45;98162.25;;;17.24;100.00
21545;BME280;10933;50.754;11.508;2023-05-10T13:30:12;98157.81;;;17.40;100.00
21545;BME280;10933;50.754;11.508;2023-05-10T13:32:38;98163.44;;;17.44;100.00
21545;BME280;10933;50.754;11.508;2023-05-10T13:35:05;98160.84;;;17.47;100.00
21545;BME280;10933;50.754;11.508;2023-05-10T13:37:32;98171.09;;;17.50;100.00
21545;BME280;10933;50.754;11.508;2023-05-10T13:40:01;98167.47;;;17.67;100.00
21545;BME280;10933;50.754;11.508;2023-05-10T13:42:27;98177.97;;;17.56;100.00
21545;BME280;10933;50.754;11.508;2023-05-10T13:44:54;98181.97;;;17.50;100.00
21545;BME280;10933;50.754;11.508;2023-05-10T13:47:20;98198.13;;;17.26;100.00
21545;BME280;10933;50.754;11.508;2023-05-10T13:49:47;98202.31;;;17.23;100.00
21545;BME280;10933;50.754;11.508;2023-05-10T13:52:13;98220.13;;;17.29;100.00
21545;BME280;10933;50.754;11.508;2023-05-10T13:54:40;98229.19;;;17.42;100.00
21545;BME280;10933;50.754;11.508;2023-05-10T13:57:06;98249.09;;;17.34;100.00
21545;BME280;10933;50.754;11.508;2023-05-10T13:59:32;98247.38;;;17.21;100.00
21545;BME280;10933;50.754;11.508;2023-05-10T14:01:59;98238.84;;;17.31;100.00
21545;BME280;10933;50.754;11.508;2023-05-10T14:04:26;98263.94;;;16.98;100.00
21545;BME280;10933;50.754;11.508;2023-05-10T14:06:52;98260.47;;;16.81;100.00
21545;BME280;10933;50.754;11.508;2023-05-10T14:09:19;98258.22;;;16.91;100.00
21545;BME280;10933;50.754;11.508;2023-05-10T14:11:45;98253.91;;;16.82;100.00
21545;BME280;10933;50.754;11.508;2023-05-10T14:14:11;98256.63;;;16.90;100.00
21545;BME280;10933;50.754;11.508;2023-05-10T14:16:41;98253.56;;;16.92;100.00
21545;BME280;10933;50.754;11.508;2023-05-10T14:19:08;98245.69;;;16.99;100.00
21545;BME280;10933;50.754;11.508;2023-05-10T14:21:34;98253.03;;;17.16;100.00
21545;BME280;10933;50.754;11.508;2023-05-10T14:24:00;98249.00;;;17.13;100.00
21545;BME280;10933;50.754;11.508;2023-05-10T14:26:27;98253.72;;;16.95;100.00
21545;BME280;10933;50.754;11.508;2023-05-10T14:28:53;98239.97;;;16.74;100.00
21545;BME280;10933;50.754;11.508;2023-05-10T14:31:19;98231.16;;;16.60;100.00
21545;BME280;10933;50.754;11.508;2023-05-10T14:33:46;98224.47;;;16.40;100.00
21545;BME280;10933;50.754;11.508;2023-05-10T14:36:13;98211.00;;;16.44;100.00
21545;BME280;10933;50.754;11.508;2023-05-10T14:38:40;98205.56;;;16.35;100.00
21545;BME280;10933;50.754;11.508;2023-05-10T14:41:06;98205.41;;;16.23;100.00
21545;BME280;10933;50.754;11.508;2023-05-10T14:43:32;98212.44;;;16.24;100.00
21545;BME280;10933;50.754;11.508;2023-05-10T14:45:59;98215.66;;;16.26;100.00
21545;BME280;10933;50.754;11.508;2023-05-10T14:48:25;98221.09;;;16.09;100.00
21545;BME280;10933;50.754;11.508;2023-05-10T14:50:51;98215.66;;;16.09;100.00
21545;BME280;10933;50.754;11.508;2023-05-10T14:53:18;98202.53;;;16.11;100.00
21545;BME280;10933;50.754;11.508;2023-05-10T14:55:44;98191.03;;;16.14;100.00
21545;BME280;10933;50.754;11.508;2023-05-10T14:58:10;98182.69;;;16.19;100.00
21545;BME280;10933;50.754;11.508;2023-05-10T15:00:36;98187.97;;;16.15;100.00